^^
Grace C. Lehan Memorial Weather Station Historical Data
Daily Summary for December 10, 2021 Units:  Both    English   Metric
Daily Weekly Monthly Yearly
  High: Low: Average:
Temperature: 44.3 °F /  6.8 °C 32.4 °F /  0.2 °C 36.3 °F /  2.4 °C
Dew Point: 35.4 °F /  1.9 °C 27.5 °F /  -2.5 °C 30.4 °F /  -0.9 °C
Humidity: 91% 69.6% 79%
Wind Speed: 1.2mph /  1.9km/h - 0mph /  0km/h
Wind Gust: 4mph /  6.4km/h - -
Wind- - NW
Pressure: 30.22 in /  1023.2 hPa 30.10 in /  1019.2 hPa -
Precipitation: 0.01 in /  0.25 mm    
 
 
Tabular Data for December 10, 2021
Time Temperature Dew Point Pressure Wind Wind Speed Wind Gust Humidity Rainfall Rate (Hourly) solar
00:04 33.1 °F /  0.6 °C 27.6 °F /  -2.4 °C 30.21in /  1022.9hPa Calm     80% 0.00in /  0mm 0 W/m2
00:09 33.1 °F /  0.6 °C 27.6 °F /  -2.4 °C 30.21in /  1022.9hPa Calm     80% 0.00in /  0mm 0 W/m2
00:14 33.1 °F /  0.6 °C 27.6 °F /  -2.4 °C 30.21in /  1022.9hPa Calm     80% 0.00in /  0mm 0 W/m2
00:19 33.1 °F /  0.6 °C 27.9 °F /  -2.3 °C 30.21in /  1022.9hPa Calm     80.9% 0.00in /  0mm 0 W/m2
00:24 33.2 °F /  0.7 °C 28 °F /  -2.2 °C 30.21in /  1022.9hPa Calm     81.1% 0.00in /  0mm 0 W/m2
00:29 33.2 °F /  0.7 °C 28.3 °F /  -2.1 °C 30.20in /  1022.6hPa Calm     81.9% 0.00in /  0mm 0 W/m2
00:34 33.2 °F /  0.7 °C 28 °F /  -2.2 °C 30.21in /  1022.9hPa Calm     81% 0.00in /  0mm 0 W/m2
00:39 33.2 °F /  0.7 °C 28.1 °F /  -2.2 °C 30.21in /  1022.9hPa Calm     81.4% 0.00in /  0mm 0 W/m2
00:44 33.2 °F /  0.7 °C 28.3 °F /  -2.1 °C 30.21in /  1022.9hPa Calm     82% 0.00in /  0mm 0 W/m2
00:49 33.2 °F /  0.7 °C 28.2 °F /  -2.1 °C 30.21in /  1022.9hPa Calm     81.6% 0.00in /  0mm 0 W/m2
00:54 33.2 °F /  0.7 °C 28.1 °F /  -2.2 °C 30.21in /  1022.9hPa Calm     81.1% 0.00in /  0mm 0 W/m2
00:59 33.2 °F /  0.7 °C 28.3 °F /  -2.1 °C 30.20in /  1022.6hPa Calm     82% 0.00in /  0mm 0 W/m2
01:04 33.3 °F /  0.7 °C 28.3 °F /  -2.1 °C 30.21in /  1022.9hPa Calm     81.6% 0.00in /  0mm 0 W/m2
01:09 33.3 °F /  0.7 °C 28.3 °F /  -2.1 °C 30.21in /  1022.9hPa Calm     81.8% 0.00in /  0mm 0 W/m2
01:14 33.3 °F /  0.7 °C 28.4 °F /  -2 °C 30.21in /  1022.9hPa Calm     82% 0.00in /  0mm 0 W/m2
01:19 33.3 °F /  0.7 °C 28.4 °F /  -2 °C 30.21in /  1022.9hPa Calm     82% 0.00in /  0mm 0 W/m2
01:24 33.3 °F /  0.7 °C 28.4 °F /  -2 °C 30.22in /  1023.2hPa Calm     82% 0.00in /  0mm 0 W/m2
01:29 33.3 °F /  0.7 °C 28.4 °F /  -2 °C 30.22in /  1023.2hPa Calm     82% 0.00in /  0mm 0 W/m2
01:34 33.3 °F /  0.7 °C 28.6 °F /  -1.9 °C 30.22in /  1023.2hPa Calm     82.6% 0.00in /  0mm 0 W/m2
01:39 33.3 °F /  0.7 °C 28.7 °F /  -1.8 °C 30.22in /  1023.2hPa Calm     83% 0.00in /  0mm 0 W/m2
01:44 33.3 °F /  0.7 °C 28.5 °F /  -1.9 °C 30.22in /  1023.2hPa Calm     82.3% 0.00in /  0mm 0 W/m2
01:49 33.2 °F /  0.7 °C 28.3 °F /  -2.1 °C 30.21in /  1022.9hPa Calm     82% 0.00in /  0mm 0 W/m2
01:54 33.2 °F /  0.7 °C 28.3 °F /  -2.1 °C 30.21in /  1022.9hPa Calm     82% 0.00in /  0mm 0 W/m2
01:59 33.1 °F /  0.6 °C 28.1 °F /  -2.2 °C 30.21in /  1022.9hPa Calm     81.5% 0.00in /  0mm 0 W/m2
02:04 33.1 °F /  0.6 °C 27.9 °F /  -2.3 °C 30.21in /  1022.9hPa Calm     81% 0.00in /  0mm 0 W/m2
02:09 33 °F /  0.6 °C 27.6 °F /  -2.4 °C 30.21in /  1022.9hPa Calm     80.4% 0.00in /  0mm 0 W/m2
02:14 33 °F /  0.6 °C 27.5 °F /  -2.5 °C 30.20in /  1022.6hPa Calm     80% 0.00in /  0mm 0 W/m2
02:19 33 °F /  0.6 °C 27.5 °F /  -2.5 °C 30.20in /  1022.6hPa Calm     80% 0.00in /  0mm 0 W/m2
02:24 33.1 °F /  0.6 °C 27.6 °F /  -2.4 °C 30.21in /  1022.9hPa Calm     80% 0.00in /  0mm 0 W/m2
02:29 33.1 °F /  0.6 °C 27.7 °F /  -2.4 °C 30.21in /  1022.9hPa Calm     80% 0.00in /  0mm 0 W/m2
02:34 33.2 °F /  0.7 °C 27.9 °F /  -2.3 °C 30.21in /  1022.9hPa Calm     80.7% 0.00in /  0mm 0 W/m2
02:39 33.3 °F /  0.7 °C 28.1 °F /  -2.2 °C 30.21in /  1022.9hPa Calm     81% 0.00in /  0mm 0 W/m2
02:44 33.3 °F /  0.7 °C 28.2 °F /  -2.1 °C 30.21in /  1022.9hPa Calm     81.4% 0.00in /  0mm 0 W/m2
02:49 33.3 °F /  0.7 °C 28.4 °F /  -2 °C 30.21in /  1022.9hPa Calm     82% 0.00in /  0mm 0 W/m2
02:54 33.3 °F /  0.7 °C 28.4 °F /  -2 °C 30.21in /  1022.9hPa Calm     82% 0.00in /  0mm 0 W/m2
02:59 33.3 °F /  0.7 °C 28.4 °F /  -2 °C 30.20in /  1022.6hPa Calm     82% 0.00in /  0mm 0 W/m2
03:04 33.3 °F /  0.7 °C 28.4 °F /  -2 °C 30.21in /  1022.9hPa Calm     82% 0.00in /  0mm 0 W/m2
03:09 33.3 °F /  0.7 °C 28.4 °F /  -2 °C 30.20in /  1022.6hPa Calm     82% 0.00in /  0mm 0 W/m2
03:14 33.3 °F /  0.7 °C 28.4 °F /  -2 °C 30.20in /  1022.6hPa Calm     82% 0.00in /  0mm 0 W/m2
03:19 33.3 °F /  0.7 °C 28.4 °F /  -2 °C 30.20in /  1022.6hPa Calm     82% 0.00in /  0mm 0 W/m2
03:24 33.3 °F /  0.7 °C 28.4 °F /  -2 °C 30.20in /  1022.6hPa Calm     82% 0.00in /  0mm 0 W/m2
03:29 33.3 °F /  0.7 °C 28.3 °F /  -2.1 °C 30.19in /  1022.2hPa Calm     81.6% 0.00in /  0mm 0 W/m2
03:34 33.3 °F /  0.7 °C 28.1 °F /  -2.2 °C 30.19in /  1022.2hPa Calm     81.2% 0.00in /  0mm 0 W/m2
03:39 33.3 °F /  0.7 °C 28.1 °F /  -2.2 °C 30.19in /  1022.2hPa Calm     81% 0.00in /  0mm 0 W/m2
03:44 33.3 °F /  0.7 °C 28.1 °F /  -2.2 °C 30.19in /  1022.2hPa Calm     81% 0.00in /  0mm 0 W/m2
03:49 33.2 °F /  0.7 °C 28 °F /  -2.2 °C 30.18in /  1021.9hPa Calm     81% 0.00in /  0mm 0 W/m2
03:54 33.3 °F /  0.7 °C 28.1 °F /  -2.2 °C 30.18in /  1021.9hPa Calm     81% 0.00in /  0mm 0 W/m2
03:59 33.2 °F /  0.7 °C 27.9 °F /  -2.3 °C 30.18in /  1021.9hPa Calm     80.5% 0.00in /  0mm 0 W/m2
04:00 33.3 °F /  0.7 °C 28.1 °F /  -2.2 °C 30.18in /  1021.9hPa Calm     81% 0.00in /  0mm 0 W/m2
04:09 33.3 °F /  0.7 °C 28.1 °F /  -2.2 °C 30.18in /  1021.9hPa Calm     81% 0.00in /  0mm 0 W/m2
04:14 33.3 °F /  0.7 °C 28.2 °F /  -2.1 °C 30.18in /  1021.9hPa Calm     81% 0.00in /  0mm 0 W/m2
04:19 33.3 °F /  0.7 °C 27.9 °F /  -2.3 °C 30.17in /  1021.6hPa Calm     80.3% 0.00in /  0mm 0 W/m2
04:24 33.3 °F /  0.7 °C 27.8 °F /  -2.3 °C 30.17in /  1021.6hPa Calm     80% 0.00in /  0mm 0 W/m2
04:29 33.4 °F /  0.8 °C 27.9 °F /  -2.3 °C 30.17in /  1021.6hPa Calm     80% 0.00in /  0mm 0 W/m2
04:34 33.4 °F /  0.8 °C 27.7 °F /  -2.4 °C 30.17in /  1021.6hPa Calm     79.4% 0.00in /  0mm 0 W/m2
04:39 33.3 °F /  0.7 °C 27.5 °F /  -2.5 °C 30.17in /  1021.6hPa Calm     79% 0.00in /  0mm 0 W/m2
04:44 33.3 °F /  0.7 °C 27.5 °F /  -2.5 °C 30.17in /  1021.6hPa Calm     79% 0.00in /  0mm 0 W/m2
04:49 33.3 °F /  0.7 °C 27.5 °F /  -2.5 °C 30.17in /  1021.6hPa Calm     79% 0.00in /  0mm 0 W/m2
04:54 33.4 °F /  0.8 °C 27.8 °F /  -2.3 °C 30.17in /  1021.6hPa Calm     79.8% 0.00in /  0mm 0 W/m2
04:59 33.4 °F /  0.8 °C 27.9 °F /  -2.3 °C 30.17in /  1021.6hPa Calm     80.1% 0.00in /  0mm 0 W/m2
05:04 33.4 °F /  0.8 °C 28.2 °F /  -2.1 °C 30.17in /  1021.6hPa Calm     81% 0.00in /  0mm 0 W/m2
05:09 33.4 °F /  0.8 °C 28.2 °F /  -2.1 °C 30.17in /  1021.6hPa Calm     81% 0.00in /  0mm 0 W/m2
05:14 33.4 °F /  0.8 °C 28.2 °F /  -2.1 °C 30.18in /  1021.9hPa Calm     81% 0.00in /  0mm 0 W/m2
05:19 33.4 °F /  0.8 °C 28.2 °F /  -2.1 °C 30.18in /  1021.9hPa Calm     81% 0.00in /  0mm 0 W/m2
05:24 33.4 °F /  0.8 °C 28.3 °F /  -2.1 °C 30.18in /  1021.9hPa Calm     81.3% 0.00in /  0mm 0 W/m2
05:29 33.4 °F /  0.8 °C 28.2 °F /  -2.1 °C 30.18in /  1021.9hPa Calm     81% 0.00in /  0mm 0 W/m2
05:34 33.4 °F /  0.8 °C 28.2 °F /  -2.1 °C 30.17in /  1021.6hPa Calm     81% 0.00in /  0mm 0 W/m2
05:39 33.4 °F /  0.8 °C 28.2 °F /  -2.1 °C 30.18in /  1021.9hPa Calm     81% 0.00in /  0mm 0 W/m2
05:44 33.4 °F /  0.8 °C 28.2 °F /  -2.1 °C 30.17in /  1021.6hPa Calm     81% 0.00in /  0mm 0 W/m2
05:49 33.4 °F /  0.8 °C 28.2 °F /  -2.1 °C 30.18in /  1021.9hPa Calm     81% 0.00in /  0mm 0 W/m2
05:54 33.4 °F /  0.8 °C 28.2 °F /  -2.1 °C 30.18in /  1021.9hPa Calm     81% 0.00in /  0mm 0 W/m2
05:59 33.4 °F /  0.8 °C 28.3 °F /  -2.1 °C 30.18in /  1021.9hPa Calm     81.3% 0.00in /  0mm 0 W/m2
06:04 33.5 °F /  0.8 °C 28.6 °F /  -1.9 °C 30.18in /  1021.9hPa Calm     82% 0.00in /  0mm 0 W/m2
06:09 33.5 °F /  0.8 °C 28.6 °F /  -1.9 °C 30.18in /  1021.9hPa Calm     82% 0.00in /  0mm 0 W/m2
06:14 33.5 °F /  0.8 °C 28.6 °F /  -1.9 °C 30.18in /  1021.9hPa Calm     82% 0.00in /  0mm 0 W/m2
06:19 33.4 °F /  0.8 °C 28.5 °F /  -1.9 °C 30.18in /  1021.9hPa Calm     82% 0.00in /  0mm 0 W/m2
06:24 33.4 °F /  0.8 °C 28.5 °F /  -1.9 °C 30.18in /  1021.9hPa Calm     82% 0.00in /  0mm 0 W/m2
06:29 33.4 °F /  0.8 °C 28.6 °F /  -1.9 °C 30.18in /  1021.9hPa Calm     82.3% 0.00in /  0mm 0 W/m2
06:34 33.5 °F /  0.8 °C 28.9 °F /  -1.7 °C 30.18in /  1021.9hPa Calm     83% 0.00in /  0mm 0 W/m2
06:39 33.5 °F /  0.8 °C 28.9 °F /  -1.7 °C 30.18in /  1021.9hPa Calm     83% 0.00in /  0mm 0 W/m2
06:44 33.5 °F /  0.8 °C 29.2 °F /  -1.6 °C 30.17in /  1021.6hPa Calm     84% 0.00in /  0mm 0 W/m2
06:49 33.5 °F /  0.8 °C 29.1 °F /  -1.6 °C 30.18in /  1021.9hPa Calm     83.7% 0.00in /  0mm 0 W/m2
06:54 33.5 °F /  0.8 °C 28.9 °F /  -1.7 °C 30.18in /  1021.9hPa Calm     83% 0.00in /  0mm 0 W/m2
06:59 33.5 °F /  0.8 °C 28.9 °F /  -1.7 °C 30.18in /  1021.9hPa Calm     83% 0.00in /  0mm 0 W/m2
07:04 33.5 °F /  0.8 °C 28.6 °F /  -1.9 °C 30.18in /  1021.9hPa Calm     82% 0.00in /  0mm 0 W/m2
07:09 33.5 °F /  0.8 °C 28.6 °F /  -1.9 °C 30.18in /  1021.9hPa Calm     82% 0.00in /  0mm 0 W/m2
07:14 33.6 °F /  0.9 °C 28.7 °F /  -1.8 °C 30.18in /  1021.9hPa Calm     81.9% 0.00in /  0mm 0 W/m2
07:19 33.6 °F /  0.9 °C 28.4 °F /  -2 °C 30.18in /  1021.9hPa Calm     81% 0.00in /  0mm 0 W/m2
07:24 33.7 °F /  0.9 °C 28.5 °F /  -1.9 °C 30.18in /  1021.9hPa Calm     81% 0.00in /  0mm 0 W/m2
07:29 33.8 °F /  1 °C 28.6 °F /  -1.9 °C 30.18in /  1021.9hPa Calm     81.1% 0.00in /  0mm 5 W/m2
07:34 33.9 °F /  1.1 °C 29 °F /  -1.7 °C 30.18in /  1021.9hPa Calm     82% 0.00in /  0mm 5 W/m2
07:39 34 °F /  1.1 °C 29.1 °F /  -1.6 °C 30.19in /  1022.2hPa Calm     81.8% 0.00in /  0mm 5 W/m2
07:44 34.1 °F /  1.2 °C 29 °F /  -1.7 °C 30.19in /  1022.2hPa Calm     81.3% 0.00in /  0mm 7 W/m2
07:49 34.2 °F /  1.2 °C 29 °F /  -1.7 °C 30.18in /  1021.9hPa Calm     81% 0.00in /  0mm 9 W/m2
07:54 34.2 °F /  1.2 °C 29 °F /  -1.7 °C 30.18in /  1021.9hPa Calm     81% 0.00in /  0mm 11 W/m2
07:59 34.3 °F /  1.3 °C 29.1 °F /  -1.6 °C 30.18in /  1021.9hPa Calm     80.9% 0.00in /  0mm 12 W/m2
08:09 34.4 °F /  1.3 °C 28.8 °F /  -1.8 °C 30.18in /  1021.9hPa Calm     80% 0.00in /  0mm 14 W/m2
08:14 34.4 °F /  1.3 °C 28.9 °F /  -1.7 °C 30.18in /  1021.9hPa Calm     80% 0.00in /  0mm 16 W/m2
08:19 34.5 °F /  1.4 °C 29 °F /  -1.7 °C 30.18in /  1021.9hPa Calm     80% 0.00in /  0mm 19 W/m2
08:24 34.6 °F /  1.4 °C 29 °F /  -1.7 °C 30.17in /  1021.6hPa Calm     79.8% 0.00in /  0mm 25 W/m2
08:29 34.6 °F /  1.4 °C 29.1 °F /  -1.6 °C 30.18in /  1021.9hPa Calm     80% 0.00in /  0mm 23 W/m2
08:34 34.8 °F /  1.6 °C 29.2 °F /  -1.6 °C 30.18in /  1021.9hPa Calm     80% 0.00in /  0mm 25 W/m2
08:39 34.8 °F /  1.6 °C 29.3 °F /  -1.5 °C 30.18in /  1021.9hPa Calm     80% 0.00in /  0mm 32 W/m2
08:44 35 °F /  1.7 °C 29.5 °F /  -1.4 °C 30.18in /  1021.9hPa Calm     80.3% 0.00in /  0mm 33 W/m2
08:49 35.1 °F /  1.7 °C 29.9 °F /  -1.2 °C 30.18in /  1021.9hPa Calm     81% 0.00in /  0mm 33 W/m2
08:54 35.1 °F /  1.7 °C 29.8 °F /  -1.2 °C 30.19in /  1022.2hPa Calm     80.8% 0.00in /  0mm 35 W/m2
08:59 35.2 °F /  1.8 °C 30 °F /  -1.1 °C 30.19in /  1022.2hPa Calm     80.9% 0.00in /  0mm 37 W/m2
09:04 35.3 °F /  1.8 °C 29.8 °F /  -1.2 °C 30.19in /  1022.2hPa NW 0.2mph /  0.3km/h 3mph /  4.8km/h 80% 0.00in /  0mm 37 W/m2
09:09 35.3 °F /  1.8 °C 29.6 °F /  -1.3 °C 30.19in /  1022.2hPa Calm   3mph /  4.8km/h 79.4% 0.00in /  0mm 32 W/m2
09:14 35.3 °F /  1.8 °C 29.5 °F /  -1.4 °C 30.19in /  1022.2hPa Calm   3mph /  4.8km/h 79% 0.00in /  0mm 33 W/m2
09:19 35.4 °F /  1.9 °C 29.5 °F /  -1.4 °C 30.20in /  1022.6hPa Calm   3mph /  4.8km/h 79% 0.00in /  0mm 33 W/m2
09:24 35.4 °F /  1.9 °C 29.6 °F /  -1.3 °C 30.20in /  1022.6hPa NW 0.3mph /  0.5km/h 3mph /  4.8km/h 79% 0.00in /  0mm 28 W/m2
09:29 35.5 °F /  1.9 °C 29.6 °F /  -1.3 °C 30.21in /  1022.9hPa NW 0.5mph /  0.8km/h 3mph /  4.8km/h 78.9% 0.00in /  0mm 37 W/m2
09:34 35.5 °F /  1.9 °C 29.4 °F /  -1.4 °C 30.20in /  1022.6hPa NW 0.5mph /  0.8km/h 3mph /  4.8km/h 78.1% 0.00in /  0mm 42 W/m2
09:39 35.6 °F /  2 °C 29.5 °F /  -1.4 °C 30.20in /  1022.6hPa Calm   3mph /  4.8km/h 78.2% 0.00in /  0mm 49 W/m2
09:44 35.7 °F /  2.1 °C 29.7 °F /  -1.3 °C 30.20in /  1022.6hPa NW 0.1mph /  0.2km/h 3mph /  4.8km/h 78.6% 0.00in /  0mm 54 W/m2
09:49 35.8 °F /  2.1 °C 29.9 °F /  -1.2 °C 30.20in /  1022.6hPa Calm   3mph /  4.8km/h 79% 0.00in /  0mm 56 W/m2
09:54 35.9 °F /  2.2 °C 30 °F /  -1.1 °C 30.20in /  1022.6hPa Calm   3mph /  4.8km/h 79% 0.00in /  0mm 67 W/m2
09:59 36 °F /  2.2 °C 30 °F /  -1.1 °C 30.20in /  1022.6hPa Calm   3mph /  4.8km/h 78.5% 0.00in /  0mm 74 W/m2
10:04 36.1 °F /  2.3 °C 29.7 °F /  -1.3 °C 30.20in /  1022.6hPa NW 0.1mph /  0.2km/h 3mph /  4.8km/h 77.3% 0.00in /  0mm 74 W/m2
10:09 36.2 °F /  2.3 °C 29.7 °F /  -1.3 °C 30.20in /  1022.6hPa Calm   2mph /  3.2km/h 77% 0.00in /  0mm 84 W/m2
10:14 36.3 °F /  2.4 °C 29.8 °F /  -1.2 °C 30.20in /  1022.6hPa NW 0.1mph /  0.2km/h 2mph /  3.2km/h 77% 0.00in /  0mm 83 W/m2
10:19 36.4 °F /  2.4 °C 29.9 °F /  -1.2 °C 30.20in /  1022.6hPa Calm   2mph /  3.2km/h 77% 0.00in /  0mm 88 W/m2
10:24 36.5 °F /  2.5 °C 29.9 °F /  -1.2 °C 30.20in /  1022.6hPa NW 0.2mph /  0.3km/h 2mph /  3.2km/h 76.6% 0.00in /  0mm 105 W/m2
10:29 36.6 °F /  2.6 °C 29.5 °F /  -1.4 °C 30.19in /  1022.2hPa Calm   2mph /  3.2km/h 75.3% 0.00in /  0mm 109 W/m2
10:34 36.7 °F /  2.6 °C 29.5 °F /  -1.4 °C 30.19in /  1022.2hPa NW 0.3mph /  0.5km/h 3mph /  4.8km/h 74.9% 0.00in /  0mm 98 W/m2
10:39 36.8 °F /  2.7 °C 29.3 °F /  -1.5 °C 30.18in /  1021.9hPa Calm   3mph /  4.8km/h 74% 0.00in /  0mm 113 W/m2
10:44 36.8 °F /  2.7 °C 29.4 °F /  -1.4 °C 30.18in /  1021.9hPa Calm   3mph /  4.8km/h 74.4% 0.00in /  0mm 113 W/m2
10:49 36.9 °F /  2.7 °C 29.5 °F /  -1.4 °C 30.18in /  1021.9hPa Calm   3mph /  4.8km/h 74.3% 0.00in /  0mm 123 W/m2
10:54 37 °F /  2.8 °C 29.7 °F /  -1.3 °C 30.18in /  1021.9hPa NW 0.1mph /  0.2km/h 3mph /  4.8km/h 74.9% 0.00in /  0mm 135 W/m2
10:59 37.1 °F /  2.8 °C 29.9 °F /  -1.2 °C 30.18in /  1021.9hPa NW 0.2mph /  0.3km/h 3mph /  4.8km/h 75% 0.00in /  0mm 142 W/m2
11:04 37.3 °F /  2.9 °C 29.8 °F /  -1.2 °C 30.18in /  1021.9hPa NW 0.3mph /  0.5km/h 3mph /  4.8km/h 74% 0.00in /  0mm 134 W/m2
11:09 37.4 °F /  3 °C 29.9 °F /  -1.2 °C 30.18in /  1021.9hPa Calm   2mph /  3.2km/h 74% 0.00in /  0mm 137 W/m2
11:14 37.6 °F /  3.1 °C 30.1 °F /  -1.1 °C 30.17in /  1021.6hPa Calm   2mph /  3.2km/h 74% 0.00in /  0mm 158 W/m2
11:19 37.8 °F /  3.2 °C 30.2 °F /  -1 °C 30.16in /  1021.2hPa Calm   2mph /  3.2km/h 74% 0.00in /  0mm 178 W/m2
11:24 37.9 °F /  3.3 °C 30.1 °F /  -1.1 °C 30.16in /  1021.2hPa Calm   2mph /  3.2km/h 73.1% 0.00in /  0mm 176 W/m2
11:29 38 °F /  3.3 °C 30.2 °F /  -1 °C 30.16in /  1021.2hPa Calm   2mph /  3.2km/h 73% 0.00in /  0mm 149 W/m2
11:34 38.2 °F /  3.4 °C 30.3 °F /  -0.9 °C 30.16in /  1021.2hPa Calm   2mph /  3.2km/h 73% 0.00in /  0mm 155 W/m2
11:39 38.4 °F /  3.6 °C 30.5 °F /  -0.8 °C 30.15in /  1020.9hPa Calm     73% 0.00in /  0mm 162 W/m2
11:44 38.5 °F /  3.6 °C 30.2 °F /  -1 °C 30.15in /  1020.9hPa Calm     71.7% 0.00in /  0mm 163 W/m2
11:49 38.6 °F /  3.7 °C 30.3 °F /  -0.9 °C 30.15in /  1020.9hPa Calm     71.8% 0.00in /  0mm 165 W/m2
11:54 38.8 °F /  3.8 °C 30.6 °F /  -0.8 °C 30.14in /  1020.5hPa Calm     72.2% 0.00in /  0mm 181 W/m2
11:59 39 °F /  3.9 °C 30.5 °F /  -0.8 °C 30.14in /  1020.5hPa Calm     71.4% 0.00in /  0mm 193 W/m2
12:00 39.1 °F /  3.9 °C 30.9 °F /  -0.6 °C 30.14in /  1020.5hPa Calm     72% 0.00in /  0mm 186 W/m2
12:09 39.3 °F /  4.1 °C 30.2 °F /  -1 °C 30.14in /  1020.5hPa Calm     69.6% 0.00in /  0mm 179 W/m2
12:14 39.5 °F /  4.2 °C 30.7 °F /  -0.7 °C 30.13in /  1020.2hPa Calm     70.7% 0.00in /  0mm 155 W/m2
12:19 39.7 °F /  4.3 °C 31.1 °F /  -0.5 °C 30.13in /  1020.2hPa Calm     71% 0.00in /  0mm 128 W/m2
12:24 39.9 °F /  4.4 °C 31.3 °F /  -0.4 °C 30.13in /  1020.2hPa Calm     71% 0.00in /  0mm 151 W/m2
12:29 40 °F /  4.4 °C 31.3 °F /  -0.4 °C 30.14in /  1020.5hPa Calm     70.8% 0.00in /  0mm 176 W/m2
12:34 40.2 °F /  4.6 °C 31.5 °F /  -0.3 °C 30.13in /  1020.2hPa Calm     71% 0.01in /  0.25mm 176 W/m2
12:39 40.2 °F /  4.6 °C 31.5 °F /  -0.3 °C 30.14in /  1020.5hPa Calm     70.7% 0.01in /  0.25mm 243 W/m2
12:44 40.3 °F /  4.6 °C 31.6 °F /  -0.2 °C 30.14in /  1020.5hPa Calm     71% 0.01in /  0.25mm 244 W/m2
12:49 40.4 °F /  4.7 °C 31.9 °F /  -0.1 °C 30.14in /  1020.5hPa Calm     71.3% 0.01in /  0.25mm 179 W/m2
12:54 40.6 °F /  4.8 °C 31.9 °F /  -0.1 °C 30.13in /  1020.2hPa Calm     71% 0.01in /  0.25mm 167 W/m2
12:59 40.7 °F /  4.8 °C 32 °F /  0 °C 30.13in /  1020.2hPa Calm   1mph /  1.6km/h 71% 0.01in /  0.25mm 167 W/m2
13:04 40.8 °F /  4.9 °C 32.2 °F /  0.1 °C 30.13in /  1020.2hPa NW 0.1mph /  0.2km/h 2mph /  3.2km/h 71% 0.01in /  0.25mm 139 W/m2
13:09 40.9 °F /  4.9 °C 32.2 °F /  0.1 °C 30.13in /  1020.2hPa Calm   2mph /  3.2km/h 70.8% 0.01in /  0.25mm 151 W/m2
13:14 41 °F /  5 °C 32.1 °F /  0.1 °C 30.12in /  1019.9hPa Calm   2mph /  3.2km/h 70.3% 0.01in /  0.25mm 162 W/m2
13:19 41.1 °F /  5.1 °C 32.1 °F /  0.1 °C 30.12in /  1019.9hPa Calm   2mph /  3.2km/h 70.2% 0.01in /  0.25mm 163 W/m2
13:24 41.2 °F /  5.1 °C 32.2 °F /  0.1 °C 30.12in /  1019.9hPa Calm   2mph /  3.2km/h 70.2% 0.01in /  0.25mm 135 W/m2
13:29 41.3 °F /  5.2 °C 32.4 °F /  0.2 °C 30.12in /  1019.9hPa Calm   2mph /  3.2km/h 70.3% 0.01in /  0.25mm 123 W/m2
13:34 41.4 °F /  5.2 °C 32.6 °F /  0.3 °C 30.12in /  1019.9hPa Calm   2mph /  3.2km/h 70.7% 0.01in /  0.25mm 123 W/m2
13:39 41.5 °F /  5.3 °C 32.8 °F /  0.4 °C 30.11in /  1019.5hPa Calm     71% 0.01in /  0.25mm 127 W/m2
13:44 41.7 °F /  5.4 °C 33 °F /  0.6 °C 30.11in /  1019.5hPa Calm     71.1% 0.01in /  0.25mm 128 W/m2
13:49 41.8 °F /  5.4 °C 32.9 °F /  0.5 °C 30.11in /  1019.5hPa Calm     70.3% 0.01in /  0.25mm 125 W/m2
13:54 41.9 °F /  5.5 °C 33.1 °F /  0.6 °C 30.11in /  1019.5hPa Calm     70.8% 0.01in /  0.25mm 125 W/m2
13:59 42 °F /  5.6 °C 33.6 °F /  0.9 °C 30.11in /  1019.5hPa Calm     71.8% 0.01in /  0.25mm 123 W/m2
14:04 42.2 °F /  5.7 °C 34 °F /  1.1 °C 30.12in /  1019.9hPa Calm     72.3% 0.01in /  0.25mm 116 W/m2
14:09 42.4 °F /  5.8 °C 33.8 °F /  1 °C 30.12in /  1019.9hPa Calm     71.3% 0.00in /  0mm 134 W/m2
14:14 42.6 °F /  5.9 °C 34.1 °F /  1.2 °C 30.11in /  1019.5hPa Calm     71.9% 0.00in /  0mm 137 W/m2
14:19 42.8 °F /  6 °C 34 °F /  1.1 °C 30.11in /  1019.5hPa Calm     71% 0.00in /  0mm 149 W/m2
14:24 42.9 °F /  6.1 °C 34 °F /  1.1 °C 30.11in /  1019.5hPa Calm     70.5% 0.00in /  0mm 248 W/m2
14:29 43.1 °F /  6.2 °C 34.2 °F /  1.2 °C 30.12in /  1019.9hPa Calm     70.7% 0.00in /  0mm 246 W/m2
14:34 43.3 °F /  6.3 °C 34.6 °F /  1.4 °C 30.12in /  1019.9hPa Calm     71% 0.00in /  0mm 90 W/m2
14:39 43.6 °F /  6.4 °C 34.8 °F /  1.6 °C 30.12in /  1019.9hPa Calm     71% 0.00in /  0mm 113 W/m2
14:44 43.9 °F /  6.6 °C 35.1 °F /  1.7 °C 30.12in /  1019.9hPa Calm     71% 0.00in /  0mm 109 W/m2
14:49 44.2 °F /  6.8 °C 35.4 °F /  1.9 °C 30.12in /  1019.9hPa Calm     71% 0.00in /  0mm 72 W/m2
14:54 44.3 °F /  6.8 °C 35.4 °F /  1.9 °C 30.12in /  1019.9hPa Calm     70.6% 0.00in /  0mm 74 W/m2
14:59 44.3 °F /  6.8 °C 35 °F /  1.7 °C 30.12in /  1019.9hPa Calm     69.7% 0.00in /  0mm 60 W/m2
15:04 44.2 °F /  6.8 °C 34.9 °F /  1.6 °C 30.12in /  1019.9hPa Calm     69.8% 0.00in /  0mm 58 W/m2
15:09 44.1 °F /  6.7 °C 35 °F /  1.7 °C 30.12in /  1019.9hPa Calm     70% 0.00in /  0mm 54 W/m2
15:14 44 °F /  6.7 °C 34.9 °F /  1.6 °C 30.12in /  1019.9hPa Calm     70% 0.00in /  0mm 49 W/m2
15:19 44 °F /  6.7 °C 35.2 °F /  1.8 °C 30.13in /  1020.2hPa Calm     70.9% 0.00in /  0mm 42 W/m2
15:24 43.9 °F /  6.6 °C 35.1 °F /  1.7 °C 30.13in /  1020.2hPa Calm     71% 0.00in /  0mm 40 W/m2
15:29 43.8 °F /  6.6 °C 35.1 °F /  1.7 °C 30.13in /  1020.2hPa Calm     71% 0.00in /  0mm 39 W/m2
15:34 43.8 °F /  6.6 °C 35 °F /  1.7 °C 30.13in /  1020.2hPa Calm     71% 0.00in /  0mm 39 W/m2
15:39 43.8 °F /  6.6 °C 35.2 °F /  1.8 °C 30.13in /  1020.2hPa NW 0.1mph /  0.2km/h 1mph /  1.6km/h 71.6% 0.00in /  0mm 39 W/m2
15:44 43.7 °F /  6.5 °C 34.9 °F /  1.6 °C 30.13in /  1020.2hPa Calm   1mph /  1.6km/h 71% 0.00in /  0mm 35 W/m2
15:49 43.7 °F /  6.5 °C 34.9 °F /  1.6 °C 30.13in /  1020.2hPa NNW 1.2mph /  1.9km/h 4mph /  6.4km/h 71% 0.00in /  0mm 26 W/m2
15:54 43.6 °F /  6.4 °C 34.6 °F /  1.4 °C 30.13in /  1020.2hPa NNW 0.1mph /  0.2km/h 4mph /  6.4km/h 70.5% 0.00in /  0mm 19 W/m2
15:59 43.4 °F /  6.3 °C 34.5 °F /  1.4 °C 30.13in /  1020.2hPa Calm   4mph /  6.4km/h 70.6% 0.00in /  0mm 18 W/m2
16:00 43.3 °F /  6.3 °C 34.2 °F /  1.2 °C 30.13in /  1020.2hPa Calm   4mph /  6.4km/h 70% 0.00in /  0mm 14 W/m2
16:09 43 °F /  6.1 °C 34.3 °F /  1.3 °C 30.14in /  1020.5hPa Calm     71% 0.00in /  0mm 9 W/m2
16:14 42.9 °F /  6.1 °C 34.1 °F /  1.2 °C 30.14in /  1020.5hPa Calm     71% 0.00in /  0mm 7 W/m2
16:19 42.7 °F /  5.9 °C 34 °F /  1.1 °C 30.14in /  1020.5hPa Calm     71% 0.00in /  0mm 0 W/m2
16:24 42.5 °F /  5.8 °C 33.9 °F /  1.1 °C 30.14in /  1020.5hPa Calm     71.3% 0.00in /  0mm 0 W/m2
16:29 42.4 °F /  5.8 °C 34 °F /  1.1 °C 30.13in /  1020.2hPa Calm     72% 0.00in /  0mm 0 W/m2
16:34 42.2 °F /  5.7 °C 33.9 °F /  1.1 °C 30.13in /  1020.2hPa Calm     72.2% 0.00in /  0mm 0 W/m2
16:39 42.1 °F /  5.6 °C 34 °F /  1.1 °C 30.13in /  1020.2hPa NNW 0.1mph /  0.2km/h 2mph /  3.2km/h 73% 0.00in /  0mm 0 W/m2
16:44 41.9 °F /  5.5 °C 33.9 °F /  1.1 °C 30.14in /  1020.5hPa Calm   2mph /  3.2km/h 73% 0.00in /  0mm 0 W/m2
16:49 41.7 °F /  5.4 °C 33.7 °F /  0.9 °C 30.13in /  1020.2hPa Calm   2mph /  3.2km/h 73% 0.00in /  0mm 0 W/m2
16:54 41.5 °F /  5.3 °C 33.5 °F /  0.8 °C 30.14in /  1020.5hPa Calm   2mph /  3.2km/h 73% 0.00in /  0mm 0 W/m2
16:59 41.3 °F /  5.2 °C 33.5 °F /  0.8 °C 30.14in /  1020.5hPa Calm   2mph /  3.2km/h 73.4% 0.00in /  0mm 0 W/m2
17:04 41.1 °F /  5.1 °C 33.5 °F /  0.8 °C 30.14in /  1020.5hPa Calm   2mph /  3.2km/h 74% 0.00in /  0mm 0 W/m2
17:09 40.9 °F /  4.9 °C 33.5 °F /  0.8 °C 30.14in /  1020.5hPa Calm     74.8% 0.00in /  0mm 0 W/m2
17:14 40.7 °F /  4.8 °C 33.2 °F /  0.7 °C 30.14in /  1020.5hPa Calm     74.3% 0.00in /  0mm 0 W/m2
17:19 40.5 °F /  4.7 °C 33.2 °F /  0.7 °C 30.15in /  1020.9hPa Calm     75% 0.00in /  0mm 0 W/m2
17:24 40.3 °F /  4.6 °C 33.2 °F /  0.7 °C 30.15in /  1020.9hPa Calm     75.5% 0.00in /  0mm 0 W/m2
17:29 40.1 °F /  4.5 °C 33.1 °F /  0.6 °C 30.15in /  1020.9hPa Calm     76% 0.00in /  0mm 0 W/m2
17:34 39.9 °F /  4.4 °C 33.2 °F /  0.7 °C 30.15in /  1020.9hPa Calm     76.8% 0.00in /  0mm 0 W/m2
17:39 39.7 °F /  4.3 °C 33.1 °F /  0.6 °C 30.15in /  1020.9hPa Calm     77% 0.00in /  0mm 0 W/m2
17:44 39.5 °F /  4.2 °C 32.9 °F /  0.5 °C 30.14in /  1020.5hPa Calm     77% 0.00in /  0mm 0 W/m2
17:49 39.2 °F /  4 °C 32.8 °F /  0.4 °C 30.14in /  1020.5hPa Calm     77.4% 0.00in /  0mm 0 W/m2
17:54 39.1 °F /  3.9 °C 32.8 °F /  0.4 °C 30.14in /  1020.5hPa Calm     78% 0.00in /  0mm 0 W/m2
17:59 38.9 °F /  3.8 °C 32.6 °F /  0.3 °C 30.14in /  1020.5hPa Calm     78% 0.00in /  0mm 0 W/m2
18:04 38.7 °F /  3.7 °C 32.5 °F /  0.3 °C 30.14in /  1020.5hPa Calm     78.1% 0.00in /  0mm 0 W/m2
18:09 38.6 °F /  3.7 °C 32.6 °F /  0.3 °C 30.14in /  1020.5hPa Calm     78.8% 0.00in /  0mm 0 W/m2
18:14 38.4 °F /  3.6 °C 32.5 °F /  0.3 °C 30.14in /  1020.5hPa Calm     79% 0.00in /  0mm 0 W/m2
18:19 38.3 °F /  3.5 °C 32.4 °F /  0.2 °C 30.14in /  1020.5hPa Calm     79% 0.00in /  0mm 0 W/m2
18:24 38.2 °F /  3.4 °C 32.5 °F /  0.3 °C 30.14in /  1020.5hPa Calm     79.7% 0.00in /  0mm 0 W/m2
18:29 38 °F /  3.3 °C 32.4 °F /  0.2 °C 30.14in /  1020.5hPa Calm     80% 0.00in /  0mm 0 W/m2
18:34 37.8 °F /  3.2 °C 32.2 °F /  0.1 °C 30.14in /  1020.5hPa Calm     80% 0.00in /  0mm 0 W/m2
18:39 37.7 °F /  3.2 °C 32.1 °F /  0.1 °C 30.14in /  1020.5hPa Calm     80% 0.00in /  0mm 0 W/m2
18:44 37.6 °F /  3.1 °C 32.2 °F /  0.1 °C 30.14in /  1020.5hPa Calm     80.8% 0.00in /  0mm 0 W/m2
18:49 37.4 °F /  3 °C 32.1 °F /  0.1 °C 30.14in /  1020.5hPa Calm     80.8% 0.00in /  0mm 0 W/m2
18:54 37.3 °F /  2.9 °C 32 °F /  0 °C 30.14in /  1020.5hPa Calm     81% 0.00in /  0mm 0 W/m2
18:59 37.1 °F /  2.8 °C 31.8 °F /  -0.1 °C 30.14in /  1020.5hPa Calm     81% 0.00in /  0mm 0 W/m2
19:04 36.9 °F /  2.7 °C 31.8 °F /  -0.1 °C 30.14in /  1020.5hPa Calm     81.7% 0.00in /  0mm 0 W/m2
19:09 36.7 °F /  2.6 °C 31.7 °F /  -0.2 °C 30.14in /  1020.5hPa Calm     82% 0.00in /  0mm 0 W/m2
19:14 36.5 °F /  2.5 °C 31.7 °F /  -0.2 °C 30.14in /  1020.5hPa Calm     82.6% 0.00in /  0mm 0 W/m2
19:19 36.4 °F /  2.4 °C 31.7 °F /  -0.2 °C 30.14in /  1020.5hPa Calm     83% 0.00in /  0mm 0 W/m2
19:24 36.2 °F /  2.3 °C 31.6 °F /  -0.2 °C 30.14in /  1020.5hPa Calm     83% 0.00in /  0mm 0 W/m2
19:29 36.1 °F /  2.3 °C 31.5 °F /  -0.3 °C 30.15in /  1020.9hPa NNW 0.1mph /  0.2km/h 3mph /  4.8km/h 83.2% 0.00in /  0mm 0 W/m2
19:34 36 °F /  2.2 °C 31.6 °F /  -0.2 °C 30.15in /  1020.9hPa Calm   3mph /  4.8km/h 84% 0.00in /  0mm 0 W/m2
19:39 35.9 °F /  2.2 °C 31.6 °F /  -0.2 °C 30.16in /  1021.2hPa Calm     84% 0.00in /  0mm 0 W/m2
19:44 35.8 °F /  2.1 °C 31.5 °F /  -0.3 °C 30.16in /  1021.2hPa Calm     84% 0.00in /  0mm 0 W/m2
19:49 35.7 °F /  2.1 °C 31.3 °F /  -0.4 °C 30.16in /  1021.2hPa Calm     84% 0.00in /  0mm 0 W/m2
19:54 35.6 °F /  2 °C 31.2 °F /  -0.4 °C 30.16in /  1021.2hPa Calm     84% 0.00in /  0mm 0 W/m2
19:59 35.5 °F /  1.9 °C 31.1 °F /  -0.5 °C 30.16in /  1021.2hPa Calm     84% 0.00in /  0mm 0 W/m2
20:00 35.4 °F /  1.9 °C 31.1 °F /  -0.5 °C 30.15in /  1020.9hPa Calm     84% 0.00in /  0mm 0 W/m2
20:09 35.2 °F /  1.8 °C 31 °F /  -0.6 °C 30.15in /  1020.9hPa Calm     84.3% 0.00in /  0mm 0 W/m2
20:14 35.1 °F /  1.7 °C 31.1 °F /  -0.5 °C 30.15in /  1020.9hPa Calm     85% 0.00in /  0mm 0 W/m2
20:19 35 °F /  1.7 °C 31 °F /  -0.6 °C 30.15in /  1020.9hPa Calm     85% 0.00in /  0mm 0 W/m2
20:24 34.9 °F /  1.6 °C 30.9 °F /  -0.6 °C 30.15in /  1020.9hPa Calm     85% 0.00in /  0mm 0 W/m2
20:29 34.7 °F /  1.5 °C 30.7 °F /  -0.7 °C 30.15in /  1020.9hPa Calm     85% 0.00in /  0mm 0 W/m2
20:34 34.5 °F /  1.4 °C 30.5 °F /  -0.8 °C 30.15in /  1020.9hPa Calm     85% 0.00in /  0mm 0 W/m2
20:39 34.3 °F /  1.3 °C 30.3 °F /  -0.9 °C 30.14in /  1020.5hPa Calm     85.4% 0.00in /  0mm 0 W/m2
20:44 34.1 °F /  1.2 °C 30.4 °F /  -0.9 °C 30.14in /  1020.5hPa Calm     86% 0.00in /  0mm 0 W/m2
20:49 34 °F /  1.1 °C 30.4 °F /  -0.9 °C 30.15in /  1020.9hPa Calm     86.3% 0.00in /  0mm 0 W/m2
20:54 33.9 °F /  1.1 °C 30.4 °F /  -0.9 °C 30.15in /  1020.9hPa Calm     86.7% 0.00in /  0mm 0 W/m2
20:59 33.8 °F /  1 °C 30.4 °F /  -0.9 °C 30.15in /  1020.9hPa Calm     87% 0.00in /  0mm 0 W/m2
21:04 33.7 °F /  0.9 °C 30.3 °F /  -0.9 °C 30.15in /  1020.9hPa Calm     87% 0.00in /  0mm 0 W/m2
21:09 33.7 °F /  0.9 °C 30.3 °F /  -0.9 °C 30.15in /  1020.9hPa Calm     87.2% 0.00in /  0mm 0 W/m2
21:14 33.7 °F /  0.9 °C 30.5 °F /  -0.8 °C 30.15in /  1020.9hPa Calm     88% 0.00in /  0mm 0 W/m2
21:19 33.7 °F /  0.9 °C 30.5 °F /  -0.8 °C 30.15in /  1020.9hPa Calm     87.8% 0.00in /  0mm 0 W/m2
21:24 33.5 °F /  0.8 °C 30.1 °F /  -1.1 °C 30.15in /  1020.9hPa Calm     87% 0.00in /  0mm 0 W/m2
21:29 33.4 °F /  0.8 °C 30.1 °F /  -1.1 °C 30.15in /  1020.9hPa Calm     87.6% 0.00in /  0mm 0 W/m2
21:34 33.2 °F /  0.7 °C 30.1 °F /  -1.1 °C 30.15in /  1020.9hPa Calm     88% 0.00in /  0mm 0 W/m2
21:39 33 °F /  0.6 °C 29.9 °F /  -1.2 °C 30.16in /  1021.2hPa Calm     88% 0.00in /  0mm 0 W/m2
21:44 32.9 °F /  0.5 °C 29.8 °F /  -1.2 °C 30.15in /  1020.9hPa Calm     88% 0.00in /  0mm 0 W/m2
21:49 32.8 °F /  0.4 °C 29.7 °F /  -1.3 °C 30.14in /  1020.5hPa Calm     88% 0.00in /  0mm 0 W/m2
21:54 32.8 °F /  0.4 °C 29.6 °F /  -1.3 °C 30.14in /  1020.5hPa Calm     88% 0.00in /  0mm 0 W/m2
21:59 32.7 °F /  0.4 °C 29.7 °F /  -1.3 °C 30.13in /  1020.2hPa Calm     88.5% 0.00in /  0mm 0 W/m2
22:04 32.6 °F /  0.3 °C 29.8 °F /  -1.2 °C 30.13in /  1020.2hPa Calm     89% 0.00in /  0mm 0 W/m2
22:09 32.6 °F /  0.3 °C 29.7 °F /  -1.3 °C 30.13in /  1020.2hPa Calm     89% 0.00in /  0mm 0 W/m2
22:14 32.6 °F /  0.3 °C 29.7 °F /  -1.3 °C 30.14in /  1020.5hPa Calm     89% 0.00in /  0mm 0 W/m2
22:19 32.5 °F /  0.3 °C 29.7 °F /  -1.3 °C 30.14in /  1020.5hPa Calm     89% 0.00in /  0mm 0 W/m2
22:24 32.5 °F /  0.3 °C 29.6 °F /  -1.3 °C 30.14in /  1020.5hPa Calm     89% 0.00in /  0mm 0 W/m2
22:29 32.4 °F /  0.2 °C 29.7 °F /  -1.3 °C 30.13in /  1020.2hPa Calm     89.5% 0.00in /  0mm 0 W/m2
22:34 32.5 °F /  0.3 °C 29.9 °F /  -1.2 °C 30.13in /  1020.2hPa Calm     90% 0.00in /  0mm 0 W/m2
22:39 32.5 °F /  0.3 °C 29.9 °F /  -1.2 °C 30.13in /  1020.2hPa Calm     90% 0.00in /  0mm 0 W/m2
22:44 32.6 °F /  0.3 °C 30 °F /  -1.1 °C 30.13in /  1020.2hPa Calm     90% 0.00in /  0mm 0 W/m2
22:49 32.7 °F /  0.4 °C 30.1 °F /  -1.1 °C 30.13in /  1020.2hPa Calm     90% 0.00in /  0mm 0 W/m2
22:54 32.8 °F /  0.4 °C 30.2 °F /  -1 °C 30.12in /  1019.9hPa Calm     90.2% 0.00in /  0mm 0 W/m2
22:59 32.9 °F /  0.5 °C 30.5 °F /  -0.8 °C 30.12in /  1019.9hPa Calm     91% 0.00in /  0mm 0 W/m2
23:00 32.9 °F /  0.5 °C 30.6 °F /  -0.8 °C 30.12in /  1019.9hPa Calm     91% 0.00in /  0mm 0 W/m2
23:09 32.9 °F /  0.5 °C 30.5 °F /  -0.8 °C 30.13in /  1020.2hPa NNW 0.3mph /  0.5km/h 2mph /  3.2km/h 90.9% 0.00in /  0mm 0 W/m2
23:14 32.9 °F /  0.5 °C 30.3 °F /  -0.9 °C 30.13in /  1020.2hPa Calm   2mph /  3.2km/h 90.2% 0.00in /  0mm 0 W/m2
23:19 32.8 °F /  0.4 °C 30.3 °F /  -0.9 °C 30.12in /  1019.9hPa Calm   2mph /  3.2km/h 90.4% 0.00in /  0mm 0 W/m2
23:24 32.8 °F /  0.4 °C 30.5 °F /  -0.8 °C 30.12in /  1019.9hPa Calm   2mph /  3.2km/h 91% 0.00in /  0mm 0 W/m2
23:29 32.8 °F /  0.4 °C 30.5 °F /  -0.8 °C 30.12in /  1019.9hPa Calm   2mph /  3.2km/h 91% 0.00in /  0mm 0 W/m2
23:34 32.8 °F /  0.4 °C 30.5 °F /  -0.8 °C 30.12in /  1019.9hPa Calm   2mph /  3.2km/h 91% 0.00in /  0mm 0 W/m2
23:39 32.8 °F /  0.4 °C 30.3 °F /  -0.9 °C 30.12in /  1019.9hPa Calm     90.5% 0.00in /  0mm 0 W/m2
23:44 32.6 °F /  0.3 °C 30 °F /  -1.1 °C 30.12in /  1019.9hPa Calm     90% 0.00in /  0mm 0 W/m2
23:49 32.6 °F /  0.3 °C 30 °F /  -1.1 °C 30.11in /  1019.5hPa Calm     90% 0.00in /  0mm 0 W/m2
23:53 32.5 °F /  0.3 °C 29.9 °F /  -1.2 °C 30.10in /  1019.2hPa Calm     90% 0.00in /  0mm 0 W/m2
Hartford County Weather
Compliments of Weather Underground - 2 mb